Time;durP1;ratioP1;P1;durP2;ratioP2;P2;SDS_P1;SDS_P2;PMS_P1;PMS_P2;Temp;Humidity;BMP_temperature;BMP_pressure;BME280_temperature;BME280_humidity;BME280_pressure;Samples;Min_cycle;Max_cycle;Signal;HPM_P1;HPM_P2
2022/09/21 00:01:43;;;;;;;4.90;2.00;;;;;;;;;;5027245;28;20208;-73
2022/09/21 00:04:10;;;;;;;6.10;2.93;;;;;;;;;;5009038;28;20198;-73
2022/09/21 00:06:36;;;;;;;6.30;2.40;;;;;;;;;;5026173;28;20191;-73
2022/09/21 00:09:04;;;;;;;3.27;1.80;;;;;;;;;;5027566;28;20192;-74
2022/09/21 00:11:31;;;;;;;9.60;3.43;;;;;;;;;;5012340;28;20223;-74
2022/09/21 00:13:59;;;;;;;10.43;5.00;;;;;;;;;;5030189;28;20188;-74
2022/09/21 00:16:26;;;;;;;5.53;2.50;;;;;;;;;;5029864;28;20192;-74
2022/09/21 00:18:53;;;;;;;27.67;11.00;;;;;;;;;;5012935;28;20659;-73
2022/09/21 00:21:20;;;;;;;9.13;3.10;;;;;;;;;;4996577;28;20737;-73
2022/09/21 00:23:48;;;;;;;7.30;3.23;;;;;;;;;;5031213;28;20670;-74
2022/09/21 00:26:15;;;;;;;6.60;2.43;;;;;;;;;;5031087;28;20187;-73
2022/09/21 00:28:43;;;;;;;19.30;6.63;;;;;;;;;;5029804;28;20276;-74
2022/09/21 00:31:11;;;;;;;9.23;3.90;;;;;;;;;;4997154;28;20231;-74
2022/09/21 00:33:38;;;;;;;4.60;2.30;;;;;;;;;;5031857;28;20191;-74
2022/09/21 00:36:06;;;;;;;8.10;2.73;;;;;;;;;;5015617;28;20219;-73
2022/09/21 00:38:32;;;;;;;3.27;1.70;;;;;;;;;;5029729;28;20233;-74
2022/09/21 00:40:59;;;;;;;6.00;1.77;;;;;;;;;;5030678;28;21117;-73
2022/09/21 00:43:26;;;;;;;19.83;8.07;;;;;;;;;;5031659;28;21035;-73
2022/09/21 00:45:56;;;;;;;3.90;2.13;;;;;;;;;;5028477;28;20195;-74
2022/09/21 00:48:23;;;;;;;2.73;1.60;;;;;;;;;;5009149;28;20315;-73
2022/09/21 00:50:52;;;;;;;7.33;2.77;;;;;;;;;;5021680;28;20194;-73
2022/09/21 00:53:21;;;;;;;10.60;4.23;;;;;;;;;;5029677;28;20195;-73
2022/09/21 00:55:49;;;;;;;2.50;1.37;;;;;;;;;;5013028;28;20183;-74
2022/09/21 00:58:18;;;;;;;3.73;1.40;;;;;;;;;;5030332;28;20197;-73
2022/09/21 01:00:45;;;;;;;4.10;1.50;;;;;;;;;;5029250;28;20229;-73
2022/09/21 01:03:12;;;;;;;2.47;1.40;;;;;;;;;;5028314;28;20223;-73
2022/09/21 01:05:39;;;;;;;3.10;1.43;;;;;;;;;;5030745;28;20176;-74
2022/09/21 01:08:06;;;;;;;3.20;1.37;;;;;;;;;;5031515;28;20187;-73
2022/09/21 01:10:40;;;;;;;4.43;1.47;;;;;;;;;;5013135;28;20187;-73
2022/09/21 01:13:19;;;;;;;3.03;1.87;;;;;;;;;;4997682;28;20686;-74
2022/09/21 01:15:49;;;;;;;2.00;1.30;;;;;;;;;;5021961;28;20191;-73
2022/09/21 01:18:20;;;;;;;2.37;1.20;;;;;;;;;;5029484;28;20274;-73
2022/09/21 01:20:59;;;;;;;1.90;1.33;;;;;;;;;;5030145;28;20199;-73
2022/09/21 01:23:26;;;;;;;3.00;1.30;;;;;;;;;;5028241;28;21125;-73
2022/09/21 01:26:05;;;;;;;1.87;1.20;;;;;;;;;;5030130;28;20661;-73
2022/09/21 01:28:55;;;;;;;3.43;1.30;;;;;;;;;;5029933;28;20221;-73
2022/09/21 01:31:33;;;;;;;1.93;1.27;;;;;;;;;;5019247;28;20227;-73
2022/09/21 01:34:02;;;;;;;2.80;1.23;;;;;;;;;;5027654;28;20317;-73
2022/09/21 01:36:29;;;;;;;3.07;1.20;;;;;;;;;;5027449;28;20633;-73
2022/09/21 01:39:02;;;;;;;2.70;1.20;;;;;;;;;;5029771;28;20218;-74
2022/09/21 01:41:29;;;;;;;1.87;1.13;;;;;;;;;;5028151;28;20659;-73
2022/09/21 01:43:56;;;;;;;4.27;1.47;;;;;;;;;;5028245;28;20273;-73
2022/09/21 01:46:24;;;;;;;2.10;1.67;;;;;;;;;;5027682;28;20201;-73
2022/09/21 01:48:52;;;;;;;1.90;1.30;;;;;;;;;;4979738;28;20203;-73
2022/09/21 01:51:19;;;;;;;3.83;1.43;;;;;;;;;;5019956;28;20195;-73
2022/09/21 01:53:45;;;;;;;4.27;1.40;;;;;;;;;;5021708;28;20191;-73
2022/09/21 01:56:14;;;;;;;2.40;1.47;;;;;;;;;;5034961;28;20540;-73
2022/09/21 01:58:43;;;;;;;2.57;1.43;;;;;;;;;;5026488;28;20195;-73
2022/09/21 02:01:10;;;;;;;6.70;1.20;;;;;;;;;;5028567;28;20198;-73
2022/09/21 02:03:38;;;;;;;3.53;1.30;;;;;;;;;;5027930;28;20287;-73
2022/09/21 02:06:05;;;;;;;3.73;1.30;;;;;;;;;;5011486;28;20196;-73
2022/09/21 02:08:31;;;;;;;1.30;1.17;;;;;;;;;;5027832;28;20207;-73
2022/09/21 02:11:01;;;;;;;2.70;1.20;;;;;;;;;;5021143;28;20230;-73
2022/09/21 02:13:29;;;;;;;4.70;2.63;;;;;;;;;;5028330;28;20658;-72
2022/09/21 02:16:01;;;;;;;1.57;1.20;;;;;;;;;;5028765;28;20572;-73
2022/09/21 02:18:34;;;;;;;8.20;5.67;;;;;;;;;;5028812;28;20962;-73
2022/09/21 02:21:02;;;;;;;14.90;6.17;;;;;;;;;;5028910;28;20271;-72
2022/09/21 02:23:53;;;;;;;5.30;2.30;;;;;;;;;;5027765;28;20215;-76
2022/09/21 02:26:25;;;;;;;3.40;2.00;;;;;;;;;;4984734;28;20564;-72
2022/09/21 02:28:54;;;;;;;4.63;1.70;;;;;;;;;;5026469;28;20198;-73
2022/09/21 02:31:24;;;;;;;3.77;1.60;;;;;;;;;;5027235;28;20234;-72
2022/09/21 02:34:04;;;;;;;3.20;1.73;;;;;;;;;;5027584;28;20180;-73
2022/09/21 02:36:34;;;;;;;2.03;0.90;;;;;;;;;;5028807;28;20194;-72
2022/09/21 02:39:12;;;;;;;2.77;1.23;;;;;;;;;;5028592;28;20314;-73
2022/09/21 02:42:00;;;;;;;2.37;1.13;;;;;;;;;;5027404;28;20172;-73
2022/09/21 02:44:46;;;;;;;2.50;1.10;;;;;;;;;;5027792;28;20283;-73
2022/09/21 02:47:14;;;;;;;2.40;0.80;;;;;;;;;;5027005;28;20223;-72
2022/09/21 02:49:42;;;;;;;1.30;1.10;;;;;;;;;;5027029;28;20199;-73
2022/09/21 02:52:13;;;;;;;2.60;1.00;;;;;;;;;;5010687;28;20199;-73
2022/09/21 02:54:40;;;;;;;1.80;0.83;;;;;;;;;;5027186;28;20270;-72
2022/09/21 02:57:07;;;;;;;2.97;1.10;;;;;;;;;;5025726;28;20196;-73
2022/09/21 02:59:34;;;;;;;2.03;0.80;;;;;;;;;;4992913;28;20195;-73
2022/09/21 03:02:01;;;;;;;2.17;0.93;;;;;;;;;;5027388;28;20203;-72
2022/09/21 03:04:27;;;;;;;3.57;1.00;;;;;;;;;;5011508;28;20183;-72
2022/09/21 03:06:55;;;;;;;1.63;0.90;;;;;;;;;;5007286;28;20250;-73
2022/09/21 03:09:23;;;;;;;3.17;1.00;;;;;;;;;;5020875;28;20595;-73
2022/09/21 03:11:50;;;;;;;2.10;0.90;;;;;;;;;;5027463;28;20191;-75
2022/09/21 03:14:18;;;;;;;1.90;0.80;;;;;;;;;;5018050;28;20203;-75
2022/09/21 03:16:44;;;;;;;1.30;0.70;;;;;;;;;;5000832;28;20647;-73
2022/09/21 03:19:11;;;;;;;2.63;1.00;;;;;;;;;;5003837;28;20250;-75
2022/09/21 03:21:38;;;;;;;1.30;0.73;;;;;;;;;;5021993;28;20599;-79
2022/09/21 03:24:10;;;;;;;1.50;0.77;;;;;;;;;;5004792;28;20285;-77
2022/09/21 03:26:37;;;;;;;2.67;1.00;;;;;;;;;;5004855;28;20187;-75
2022/09/21 03:29:04;;;;;;;1.00;0.70;;;;;;;;;;5003816;28;20615;-76
2022/09/21 03:31:31;;;;;;;2.13;0.83;;;;;;;;;;5020096;28;20230;-72
2022/09/21 03:33:58;;;;;;;3.07;0.97;;;;;;;;;;5019122;28;20836;-73
2022/09/21 03:36:25;;;;;;;2.37;1.03;;;;;;;;;;5004217;28;20659;-72
2022/09/21 03:38:52;;;;;;;2.97;0.80;;;;;;;;;;5022029;28;20254;-74
2022/09/21 03:41:18;;;;;;;2.83;0.83;;;;;;;;;;5021855;28;20659;-75
2022/09/21 03:43:45;;;;;;;1.43;0.90;;;;;;;;;;5022387;28;20219;-74
2022/09/21 03:46:12;;;;;;;1.50;0.93;;;;;;;;;;5006636;28;20202;-73
2022/09/21 03:48:41;;;;;;;1.40;0.90;;;;;;;;;;5024270;28;20211;-74
2022/09/21 03:51:08;;;;;;;2.50;1.10;;;;;;;;;;5023872;28;20222;-73
2022/09/21 03:53:34;;;;;;;3.43;1.00;;;;;;;;;;5023386;28;20647;-73
2022/09/21 03:56:01;;;;;;;2.60;1.00;;;;;;;;;;5004687;28;20187;-74
2022/09/21 03:58:28;;;;;;;2.07;1.00;;;;;;;;;;5006056;28;20667;-75
2022/09/21 04:00:59;;;;;;;2.20;0.90;;;;;;;;;;5023554;28;20654;-75
2022/09/21 04:03:26;;;;;;;1.70;1.00;;;;;;;;;;5026238;28;20217;-73
2022/09/21 04:05:53;;;;;;;1.87;0.90;;;;;;;;;;5024751;28;20207;-74
2022/09/21 04:08:38;;;;;;;2.03;1.10;;;;;;;;;;5024543;28;20183;-73
2022/09/21 04:11:09;;;;;;;3.80;1.20;;;;;;;;;;5022030;28;20210;-75
2022/09/21 04:13:56;;;;;;;2.33;0.90;;;;;;;;;;5008924;28;20590;-73
2022/09/21 04:16:24;;;;;;;4.77;1.43;;;;;;;;;;4996152;28;21638;-73
2022/09/21 04:18:50;;;;;;;2.70;1.00;;;;;;;;;;5023819;28;20188;-74
2022/09/21 04:21:18;;;;;;;3.73;1.50;;;;;;;;;;5021605;28;20555;-75
2022/09/21 04:23:44;;;;;;;2.77;1.20;;;;;;;;;;5007132;28;20258;-75
2022/09/21 04:26:18;;;;;;;3.83;1.10;;;;;;;;;;5005131;28;20798;-74
2022/09/21 04:28:45;;;;;;;2.37;1.00;;;;;;;;;;5007552;28;20233;-74
2022/09/21 04:31:12;;;;;;;3.40;1.10;;;;;;;;;;5021539;28;20231;-73
2022/09/21 04:33:40;;;;;;;4.37;1.60;;;;;;;;;;5006306;28;20888;-73
2022/09/21 04:36:07;;;;;;;1.93;1.10;;;;;;;;;;5023460;28;20207;-76
2022/09/21 04:38:33;;;;;;;2.10;0.80;;;;;;;;;;5007579;28;20282;-74
2022/09/21 04:41:02;;;;;;;3.57;1.17;;;;;;;;;;5022563;28;20199;-76
2022/09/21 04:43:29;;;;;;;2.33;0.90;;;;;;;;;;5004273;28;22224;-76
2022/09/21 04:45:55;;;;;;;2.93;1.00;;;;;;;;;;5022631;28;20191;-76
2022/09/21 04:48:22;;;;;;;6.67;1.20;;;;;;;;;;5004966;28;20198;-75
2022/09/21 04:50:49;;;;;;;2.70;1.00;;;;;;;;;;5005102;28;20725;-72
2022/09/21 04:53:16;;;;;;;3.47;1.00;;;;;;;;;;5021961;28;20199;-73
2022/09/21 04:55:43;;;;;;;1.57;1.03;;;;;;;;;;5006387;28;20201;-72
2022/09/21 04:58:10;;;;;;;2.37;1.00;;;;;;;;;;5003889;28;20227;-73
2022/09/21 05:00:37;;;;;;;1.90;1.20;;;;;;;;;;5024903;28;20191;-74
2022/09/21 05:03:04;;;;;;;2.57;1.17;;;;;;;;;;5003794;28;20488;-74
2022/09/21 05:05:30;;;;;;;2.47;1.07;;;;;;;;;;5022980;28;20196;-73
2022/09/21 05:07:57;;;;;;;4.13;1.37;;;;;;;;;;5023190;28;20203;-75
2022/09/21 05:10:24;;;;;;;1.93;1.20;;;;;;;;;;5023089;28;20203;-72
2022/09/21 05:12:51;;;;;;;3.97;1.20;;;;;;;;;;5021963;28;20309;-72
2022/09/21 05:15:19;;;;;;;3.07;1.27;;;;;;;;;;5012225;28;20231;-72
2022/09/21 05:17:46;;;;;;;1.70;1.20;;;;;;;;;;5022183;28;20191;-74
2022/09/21 05:20:12;;;;;;;2.10;1.10;;;;;;;;;;5005003;28;20215;-71
2022/09/21 05:22:39;;;;;;;3.13;1.17;;;;;;;;;;5024089;28;20193;-73
2022/09/21 05:25:07;;;;;;;2.70;1.30;;;;;;;;;;5022051;28;20606;-72
2022/09/21 05:27:34;;;;;;;2.40;1.40;;;;;;;;;;5020581;28;20209;-74
2022/09/21 05:30:02;;;;;;;2.63;1.07;;;;;;;;;;5024754;28;20666;-76
2022/09/21 05:32:49;;;;;;;1.83;1.10;;;;;;;;;;5030305;28;20256;-75
2022/09/21 05:35:19;;;;;;;2.47;1.37;;;;;;;;;;5031917;28;20202;-76
2022/09/21 05:37:49;;;;;;;1.63;1.30;;;;;;;;;;5028945;28;20261;-76
2022/09/21 05:40:17;;;;;;;2.90;1.30;;;;;;;;;;5024993;28;20192;-76
2022/09/21 05:42:44;;;;;;;2.23;1.30;;;;;;;;;;5028890;28;20195;-76
2022/09/21 05:45:14;;;;;;;4.50;1.53;;;;;;;;;;5029807;28;20187;-76
2022/09/21 05:47:51;;;;;;;2.97;1.50;;;;;;;;;;5030716;28;20233;-76
2022/09/21 05:50:26;;;;;;;2.23;1.20;;;;;;;;;;5031081;28;20625;-76
2022/09/21 05:53:00;;;;;;;4.63;1.53;;;;;;;;;;5020324;28;20238;-76
2022/09/21 05:55:46;;;;;;;2.80;1.23;;;;;;;;;;5011128;28;20217;-76
2022/09/21 05:58:29;;;;;;;3.23;1.23;;;;;;;;;;5030562;28;20195;-76
2022/09/21 06:01:02;;;;;;;7.67;1.47;;;;;;;;;;5030527;28;20200;-76
2022/09/21 06:03:29;;;;;;;3.10;1.40;;;;;;;;;;5028863;28;20230;-76
2022/09/21 06:05:57;;;;;;;3.40;1.37;;;;;;;;;;5012090;28;20781;-76
2022/09/21 06:08:24;;;;;;;3.67;1.40;;;;;;;;;;5030388;28;20204;-76
2022/09/21 06:10:52;;;;;;;3.57;1.67;;;;;;;;;;5019153;28;20668;-76
2022/09/21 06:13:19;;;;;;;3.50;1.50;;;;;;;;;;5010640;28;20250;-77
2022/09/21 06:15:47;;;;;;;1.83;1.30;;;;;;;;;;5025771;28;20187;-77
2022/09/21 06:18:14;;;;;;;2.03;1.13;;;;;;;;;;5014213;28;20199;-76
2022/09/21 06:20:44;;;;;;;2.37;1.37;;;;;;;;;;5020292;28;20188;-76
2022/09/21 06:23:11;;;;;;;2.17;1.40;;;;;;;;;;5030850;28;20235;-76
2022/09/21 06:25:39;;;;;;;3.30;1.43;;;;;;;;;;4990859;28;21035;-76
2022/09/21 06:28:10;;;;;;;3.33;1.43;;;;;;;;;;5024456;28;20211;-76
2022/09/21 06:30:40;;;;;;;2.23;1.20;;;;;;;;;;5029479;28;20199;-75
2022/09/21 06:33:08;;;;;;;2.47;1.70;;;;;;;;;;5027554;28;20196;-76
2022/09/21 06:35:35;;;;;;;3.63;1.50;;;;;;;;;;5016990;28;20200;-75
2022/09/21 06:38:03;;;;;;;4.57;1.70;;;;;;;;;;5022432;28;20533;-76
2022/09/21 06:40:30;;;;;;;2.23;1.30;;;;;;;;;;5013097;28;20732;-76
2022/09/21 06:42:58;;;;;;;5.73;2.03;;;;;;;;;;5007750;28;20200;-76
2022/09/21 06:45:26;;;;;;;4.83;1.70;;;;;;;;;;5021965;28;20307;-75
2022/09/21 06:47:57;;;;;;;3.33;1.90;;;;;;;;;;5012961;28;20199;-75
2022/09/21 06:50:25;;;;;;;3.50;2.10;;;;;;;;;;5012019;28;20195;-75
2022/09/21 06:52:53;;;;;;;3.73;2.00;;;;;;;;;;5016724;28;20195;-75
2022/09/21 06:55:21;;;;;;;5.40;2.40;;;;;;;;;;5030020;28;20592;-75
2022/09/21 06:57:50;;;;;;;4.77;1.90;;;;;;;;;;4994133;28;20202;-75
2022/09/21 07:00:17;;;;;;;5.43;2.10;;;;;;;;;;5025734;28;20253;-75
2022/09/21 07:02:44;;;;;;;4.60;2.10;;;;;;;;;;5004292;28;20249;-75
2022/09/21 07:05:11;;;;;;;3.70;1.60;;;;;;;;;;5028180;28;20282;-75
2022/09/21 07:07:40;;;;;;;2.90;1.37;;;;;;;;;;5027050;28;20226;-75
2022/09/21 07:10:07;;;;;;;2.60;1.63;;;;;;;;;;5010739;28;20276;-75
2022/09/21 07:12:40;;;;;;;3.37;1.43;;;;;;;;;;5027918;28;20199;-75
2022/09/21 07:15:09;;;;;;;2.80;1.70;;;;;;;;;;5011306;28;20192;-75
2022/09/21 07:17:36;;;;;;;2.37;1.30;;;;;;;;;;5027588;28;20184;-74
2022/09/21 07:20:04;;;;;;;3.77;1.47;;;;;;;;;;5029115;28;20484;-74
2022/09/21 07:22:31;;;;;;;2.60;1.30;;;;;;;;;;4998114;28;20642;-74
2022/09/21 07:24:58;;;;;;;2.60;1.43;;;;;;;;;;5031495;28;20219;-74
2022/09/21 07:27:27;;;;;;;3.03;1.40;;;;;;;;;;5011480;28;20227;-73
2022/09/21 07:29:54;;;;;;;3.83;1.60;;;;;;;;;;5029086;28;20516;-73
2022/09/21 07:32:22;;;;;;;2.23;1.20;;;;;;;;;;5014459;28;20231;-74
2022/09/21 07:34:50;;;;;;;1.63;0.87;;;;;;;;;;5024143;28;21270;-74
2022/09/21 07:37:18;;;;;;;1.80;0.93;;;;;;;;;;5034214;28;20274;-74
2022/09/21 07:39:47;;;;;;;1.00;0.80;;;;;;;;;;5026822;28;20187;-74
2022/09/21 07:42:16;;;;;;;2.40;0.87;;;;;;;;;;5027898;28;20611;-74
2022/09/21 07:44:43;;;;;;;1.47;0.70;;;;;;;;;;5033032;28;20261;-74
2022/09/21 07:47:12;;;;;;;1.30;0.70;;;;;;;;;;5013969;28;20250;-74
2022/09/21 07:49:39;;;;;;;1.43;0.70;;;;;;;;;;5013887;28;20211;-74
2022/09/21 07:52:07;;;;;;;3.70;1.00;;;;;;;;;;5032858;28;20203;-74
2022/09/21 07:54:36;;;;;;;1.90;0.70;;;;;;;;;;5032985;28;20192;-74
2022/09/21 07:59:49;;;;;;;1.53;0.60;;;;;;;;;;5031983;28;20188;-74
2022/09/21 08:02:16;;;;;;;2.30;0.70;;;;;;;;;;5015573;28;20609;-74
2022/09/21 08:04:43;;;;;;;1.20;0.60;;;;;;;;;;5010066;28;20227;-75
2022/09/21 08:07:10;;;;;;;1.70;0.80;;;;;;;;;;5012127;28;20187;-74
2022/09/21 08:09:37;;;;;;;2.87;0.73;;;;;;;;;;4979834;28;20254;-73
2022/09/21 08:12:04;;;;;;;1.80;0.80;;;;;;;;;;5013247;28;20185;-73
2022/09/21 08:14:31;;;;;;;2.03;0.80;;;;;;;;;;4997322;28;20258;-74
2022/09/21 08:16:58;;;;;;;1.20;0.67;;;;;;;;;;5029617;28;20191;-75
2022/09/21 08:19:25;;;;;;;0.97;0.67;;;;;;;;;;5031926;28;20653;-73
2022/09/21 08:21:52;;;;;;;1.53;0.80;;;;;;;;;;5032078;28;20551;-75
2022/09/21 08:24:30;;;;;;;2.17;0.90;;;;;;;;;;5014759;28;20725;-74
2022/09/21 08:27:01;;;;;;;1.20;0.50;;;;;;;;;;5008330;28;20195;-74
2022/09/21 08:29:29;;;;;;;0.80;0.50;;;;;;;;;;5014371;28;20270;-75
2022/09/21 08:31:56;;;;;;;1.70;0.60;;;;;;;;;;5028260;28;20578;-74
2022/09/21 08:34:23;;;;;;;1.40;0.60;;;;;;;;;;5013249;28;20685;-74
2022/09/21 08:36:50;;;;;;;2.43;0.70;;;;;;;;;;5022254;28;20188;-74
2022/09/21 08:39:21;;;;;;;2.00;0.60;;;;;;;;;;5019626;28;20206;-74
2022/09/21 08:41:55;;;;;;;1.40;0.70;;;;;;;;;;5013910;28;20199;-75
2022/09/21 08:44:22;;;;;;;0.80;0.43;;;;;;;;;;5030026;28;20596;-75
2022/09/21 08:46:55;;;;;;;1.20;0.70;;;;;;;;;;5010057;28;20195;-74
2022/09/21 08:49:24;;;;;;;1.43;0.50;;;;;;;;;;5023875;28;20198;-74
2022/09/21 08:52:01;;;;;;;3.00;0.50;;;;;;;;;;5006616;28;20192;-75
2022/09/21 08:54:35;;;;;;;1.73;0.50;;;;;;;;;;5021081;28;20693;-75
2022/09/21 08:57:02;;;;;;;2.70;0.50;;;;;;;;;;5031499;28;20238;-75
2022/09/21 08:59:32;;;;;;;2.30;0.50;;;;;;;;;;5021180;28;20637;-75
2022/09/21 09:02:11;;;;;;;3.63;0.50;;;;;;;;;;5029435;28;20298;-74
2022/09/21 09:04:50;;;;;;;3.17;0.40;;;;;;;;;;5022885;28;20199;-73
2022/09/21 09:07:32;;;;;;;1.87;0.50;;;;;;;;;;5027745;28;20186;-75
2022/09/21 09:10:20;;;;;;;2.37;0.60;;;;;;;;;;5013365;28;20231;-75
2022/09/21 09:12:54;;;;;;;2.33;0.57;;;;;;;;;;5003340;28;20203;-75
2022/09/21 09:15:40;;;;;;;1.57;0.60;;;;;;;;;;5030956;28;20238;-75
2022/09/21 09:18:17;;;;;;;1.33;0.47;;;;;;;;;;5030842;28;20187;-75
2022/09/21 09:20:44;;;;;;;3.10;0.60;;;;;;;;;;5032665;28;20274;-75
2022/09/21 09:23:31;;;;;;;3.00;0.50;;;;;;;;;;5022168;28;20790;-75
2022/09/21 09:26:00;;;;;;;1.03;0.30;;;;;;;;;;5028637;28;20273;-74
2022/09/21 09:28:27;;;;;;;2.03;0.60;;;;;;;;;;5037364;28;20203;-74
2022/09/21 09:31:02;;;;;;;2.10;0.40;;;;;;;;;;5027471;28;20223;-74
2022/09/21 09:33:42;;;;;;;1.20;0.50;;;;;;;;;;5003296;28;20961;-75
2022/09/21 09:36:10;;;;;;;1.57;0.60;;;;;;;;;;5029452;28;20278;-76
2022/09/21 09:39:15;;;;;;;1.37;0.50;;;;;;;;;;5007509;28;20177;-75
2022/09/21 09:41:51;;;;;;;2.67;0.40;;;;;;;;;;4927057;29;20298;-75
2022/09/21 09:44:40;;;;;;;1.43;0.40;;;;;;;;;;4948402;28;20693;-75
2022/09/21 09:47:10;;;;;;;2.67;0.90;;;;;;;;;;4992651;28;20233;-76
2022/09/21 09:49:51;;;;;;;0.40;0.40;;;;;;;;;;5026318;28;20196;-75
2022/09/21 09:52:18;;;;;;;0.70;0.50;;;;;;;;;;5006426;28;20234;-75
2022/09/21 09:54:47;;;;;;;0.70;0.50;;;;;;;;;;5005837;28;20336;-76
2022/09/21 09:57:14;;;;;;;1.17;0.43;;;;;;;;;;5026545;28;20547;-75
2022/09/21 09:59:46;;;;;;;1.63;0.57;;;;;;;;;;5021088;28;20250;-76
2022/09/21 10:02:26;;;;;;;0.83;0.33;;;;;;;;;;5029485;28;20245;-76
2022/09/21 10:05:02;;;;;;;2.83;0.50;;;;;;;;;;5006990;28;20224;-75
2022/09/21 10:07:37;;;;;;;1.03;0.30;;;;;;;;;;5029121;28;20213;-75
2022/09/21 10:10:22;;;;;;;1.60;0.50;;;;;;;;;;5029923;28;20191;-75
2022/09/21 10:12:49;;;;;;;1.97;0.50;;;;;;;;;;5027961;28;20187;-77
2022/09/21 10:15:16;;;;;;;5.03;0.40;;;;;;;;;;5005219;28;20192;-76
2022/09/21 10:17:48;;;;;;;1.80;0.50;;;;;;;;;;4998303;28;20199;-75
2022/09/21 10:20:34;;;;;;;2.77;0.70;;;;;;;;;;5010147;28;20703;-77
2022/09/21 10:23:04;;;;;;;1.47;0.40;;;;;;;;;;5028711;28;20210;-75
2022/09/21 10:25:30;;;;;;;2.03;0.40;;;;;;;;;;5011516;28;20629;-76
2022/09/21 10:28:04;;;;;;;1.93;0.50;;;;;;;;;;5010996;28;20211;-76
2022/09/21 10:30:31;;;;;;;0.83;0.40;;;;;;;;;;5028752;28;20195;-75
2022/09/21 10:32:58;;;;;;;1.60;0.53;;;;;;;;;;5029342;28;20202;-75
2022/09/21 10:35:25;;;;;;;2.40;0.50;;;;;;;;;;5012656;28;20729;-75
2022/09/21 10:38:11;;;;;;;2.43;0.50;;;;;;;;;;5009542;28;20192;-74
2022/09/21 10:40:38;;;;;;;3.63;1.60;;;;;;;;;;5028336;28;20195;-75
2022/09/21 10:43:05;;;;;;;2.20;0.70;;;;;;;;;;5028782;28;20729;-75
2022/09/21 10:45:34;;;;;;;3.07;1.33;;;;;;;;;;5006487;28;20634;-75
2022/09/21 10:48:04;;;;;;;3.10;1.37;;;;;;;;;;5011282;28;20210;-76
2022/09/21 10:50:39;;;;;;;2.10;1.03;;;;;;;;;;5028990;28;20249;-77
2022/09/21 10:53:09;;;;;;;2.67;0.80;;;;;;;;;;4995620;28;20776;-74
2022/09/21 10:55:40;;;;;;;0.80;0.40;;;;;;;;;;5028600;28;20195;-75
2022/09/21 10:58:27;;;;;;;0.87;0.50;;;;;;;;;;5029592;28;20200;-77
2022/09/21 11:00:54;;;;;;;2.53;0.50;;;;;;;;;;5029574;28;20729;-76
2022/09/21 11:03:40;;;;;;;0.70;0.40;;;;;;;;;;5011956;28;20658;-76
2022/09/21 11:06:27;;;;;;;1.87;0.53;;;;;;;;;;5011956;28;20225;-76
2022/09/21 11:08:57;;;;;;;0.93;0.50;;;;;;;;;;5003206;28;20227;-77
2022/09/21 11:11:31;;;;;;;1.33;0.70;;;;;;;;;;4992419;28;20833;-76
2022/09/21 11:14:24;;;;;;;3.77;1.80;;;;;;;;;;5005035;28;20203;-78
2022/09/21 11:16:54;;;;;;;2.10;1.50;;;;;;;;;;5006357;28;20218;-76
2022/09/21 11:19:41;;;;;;;1.87;1.03;;;;;;;;;;4995594;28;20725;-76
2022/09/21 11:22:15;;;;;;;1.03;0.40;;;;;;;;;;5012299;28;20190;-76
2022/09/21 11:24:51;;;;;;;1.07;0.47;;;;;;;;;;5004547;28;20211;-77
2022/09/21 11:27:26;;;;;;;1.00;0.40;;;;;;;;;;4979331;28;20188;-77
2022/09/21 11:30:08;;;;;;;2.50;0.60;;;;;;;;;;5011949;28;20190;-76
2022/09/21 11:32:44;;;;;;;4.50;2.93;;;;;;;;;;5010420;28;20228;-77
2022/09/21 11:35:20;;;;;;;4.47;1.80;;;;;;;;;;4991682;28;20196;-77
2022/09/21 11:37:56;;;;;;;3.27;1.37;;;;;;;;;;5008494;28;20220;-75
2022/09/21 11:40:29;;;;;;;2.43;0.43;;;;;;;;;;5016526;28;20199;-77
2022/09/21 11:43:16;;;;;;;2.90;1.20;;;;;;;;;;5029629;28;20182;-77
2022/09/21 11:45:48;;;;;;;1.37;0.50;;;;;;;;;;5023933;28;20301;-77
2022/09/21 11:48:25;;;;;;;3.43;0.60;;;;;;;;;;5029086;28;20188;-77
2022/09/21 11:50:59;;;;;;;1.53;0.50;;;;;;;;;;5027871;28;20667;-76
2022/09/21 11:53:39;;;;;;;2.13;0.60;;;;;;;;;;4976629;28;20664;-76
2022/09/21 11:56:08;;;;;;;3.00;0.70;;;;;;;;;;5009238;28;20216;-75
2022/09/21 11:59:11;;;;;;;1.93;0.47;;;;;;;;;;5008814;28;20230;-73
2022/09/21 12:01:42;;;;;;;1.10;0.63;;;;;;;;;;4968256;28;20272;-76
2022/09/21 12:04:09;;;;;;;3.73;0.63;;;;;;;;;;5018220;28;20204;-75
2022/09/21 12:06:55;;;;;;;3.73;2.43;;;;;;;;;;5030900;28;20299;-75
2022/09/21 12:09:25;;;;;;;1.47;1.03;;;;;;;;;;5032619;28;20195;-74
2022/09/21 12:12:12;;;;;;;5.33;4.47;;;;;;;;;;5032665;28;20187;-73
2022/09/21 12:14:41;;;;;;;2.93;0.73;;;;;;;;;;4997907;28;20249;-74
2022/09/21 12:17:23;;;;;;;2.23;0.77;;;;;;;;;;5001181;28;20195;-72
2022/09/21 12:19:54;;;;;;;1.13;0.80;;;;;;;;;;5013458;28;20204;-72
2022/09/21 12:22:25;;;;;;;1.63;0.57;;;;;;;;;;5014585;28;20188;-73
2022/09/21 12:24:54;;;;;;;2.27;0.80;;;;;;;;;;5019381;28;20227;-73
2022/09/21 12:27:27;;;;;;;2.63;1.00;;;;;;;;;;5021462;28;20194;-73
2022/09/21 12:29:57;;;;;;;1.20;0.70;;;;;;;;;;5028698;28;20195;-73
2022/09/21 12:32:49;;;;;;;5.13;0.93;;;;;;;;;;4986728;28;20641;-74
2022/09/21 12:35:36;;;;;;;1.80;0.77;;;;;;;;;;5004936;28;20226;-73
2022/09/21 12:38:05;;;;;;;1.83;0.90;;;;;;;;;;4991811;28;20667;-72
2022/09/21 12:40:35;;;;;;;3.17;0.73;;;;;;;;;;5005681;28;20192;-73
2022/09/21 12:43:02;;;;;;;1.43;0.77;;;;;;;;;;5007775;28;20239;-72
2022/09/21 12:45:41;;;;;;;2.30;0.90;;;;;;;;;;5012354;28;20777;-72
2022/09/21 12:48:18;;;;;;;2.33;0.90;;;;;;;;;;4994372;28;20199;-72
2022/09/21 12:50:49;;;;;;;0.97;0.60;;;;;;;;;;5003377;28;20195;-72
2022/09/21 12:53:19;;;;;;;0.70;0.50;;;;;;;;;;5011887;28;20242;-72
2022/09/21 12:56:22;;;;;;;1.17;0.50;;;;;;;;;;5011046;28;20678;-72
2022/09/21 12:59:18;;;;;;;2.57;0.60;;;;;;;;;;4946912;28;20186;-72
2022/09/21 13:01:47;;;;;;;1.83;0.67;;;;;;;;;;5029237;28;20199;-73
2022/09/21 13:04:24;;;;;;;2.73;0.70;;;;;;;;;;5031242;28;20210;-73
2022/09/21 13:06:54;;;;;;;1.13;0.60;;;;;;;;;;5030943;28;20214;-73
2022/09/21 13:09:39;;;;;;;1.90;0.50;;;;;;;;;;5031517;28;20194;-73
2022/09/21 13:12:16;;;;;;;3.03;0.67;;;;;;;;;;5013410;28;20210;-72
2022/09/21 13:14:47;;;;;;;1.63;0.60;;;;;;;;;;5014158;28;20195;-72
2022/09/21 13:17:24;;;;;;;1.80;0.60;;;;;;;;;;4990231;28;20697;-71
2022/09/21 13:19:58;;;;;;;2.13;0.50;;;;;;;;;;5020598;28;20234;-72
2022/09/21 13:22:25;;;;;;;1.63;0.80;;;;;;;;;;5005494;28;20801;-75
2022/09/21 13:25:16;;;;;;;1.27;0.57;;;;;;;;;;5002989;28;20525;-77
2022/09/21 13:28:00;;;;;;;3.90;2.50;;;;;;;;;;5004697;28;20838;-74
2022/09/21 13:30:49;;;;;;;1.43;0.70;;;;;;;;;;5009677;28;20186;-72
2022/09/21 13:33:19;;;;;;;2.70;1.17;;;;;;;;;;5021654;28;20196;-70
2022/09/21 13:35:48;;;;;;;5.03;0.93;;;;;;;;;;5023101;28;20202;-71
2022/09/21 13:38:46;;;;;;;1.67;0.80;;;;;;;;;;5023825;28;20195;-70
2022/09/21 13:41:32;;;;;;;1.37;0.50;;;;;;;;;;5015375;28;20271;-72
2022/09/21 13:44:37;;;;;;;2.17;0.70;;;;;;;;;;4996389;28;20195;-71
2022/09/21 13:47:04;;;;;;;1.27;0.70;;;;;;;;;;5006471;28;20223;-72
2022/09/21 13:50:03;;;;;;;1.43;0.70;;;;;;;;;;5020982;28;20286;-71
2022/09/21 13:52:34;;;;;;;2.70;0.50;;;;;;;;;;5008274;28;20705;-71
2022/09/21 13:55:04;;;;;;;1.80;0.60;;;;;;;;;;5005651;28;20195;-72
2022/09/21 13:57:35;;;;;;;2.70;0.93;;;;;;;;;;5022710;28;20203;-74
2022/09/21 14:00:11;;;;;;;2.00;0.80;;;;;;;;;;5024023;28;20825;-71
2022/09/21 14:02:39;;;;;;;3.13;0.50;;;;;;;;;;5023295;28;20227;-71
2022/09/21 14:05:08;;;;;;;1.90;0.60;;;;;;;;;;5005771;28;20674;-70
2022/09/21 14:07:35;;;;;;;1.47;0.63;;;;;;;;;;5022069;28;20207;-73
2022/09/21 14:10:03;;;;;;;2.17;0.60;;;;;;;;;;5015254;28;20206;-72
2022/09/21 14:12:48;;;;;;;3.70;0.73;;;;;;;;;;5006421;28;20187;-71
2022/09/21 14:15:15;;;;;;;1.93;0.70;;;;;;;;;;5019410;28;20199;-75
2022/09/21 14:17:42;;;;;;;1.63;0.70;;;;;;;;;;5000368;28;20316;-75
2022/09/21 14:20:26;;;;;;;1.47;0.60;;;;;;;;;;5005951;28;20770;-74
2022/09/21 14:23:20;;;;;;;0.70;0.60;;;;;;;;;;5021020;28;20203;-67
2022/09/21 14:25:51;;;;;;;1.03;0.60;;;;;;;;;;4996845;28;20227;-69
2022/09/21 14:28:39;;;;;;;1.37;0.77;;;;;;;;;;5020921;28;20191;-68
2022/09/21 14:31:25;;;;;;;1.60;0.50;;;;;;;;;;5011783;28;20207;-69
2022/09/21 14:33:53;;;;;;;2.83;0.70;;;;;;;;;;5004910;28;20195;-68
2022/09/21 14:36:21;;;;;;;2.40;1.60;;;;;;;;;;5017188;28;20878;-66
2022/09/21 14:38:50;;;;;;;1.80;0.77;;;;;;;;;;5020581;28;20190;-67
2022/09/21 14:41:21;;;;;;;4.20;1.40;;;;;;;;;;5021410;28;20277;-67
2022/09/21 14:43:52;;;;;;;3.83;0.70;;;;;;;;;;5019426;28;20191;-66
2022/09/21 14:46:22;;;;;;;1.00;0.67;;;;;;;;;;5021554;28;20215;-68
2022/09/21 14:48:49;;;;;;;5.00;1.27;;;;;;;;;;5020095;28;20350;-67
2022/09/21 14:51:17;;;;;;;10.83;3.90;;;;;;;;;;5021246;28;21225;-67
2022/09/21 14:54:16;;;;;;;2.30;1.40;;;;;;;;;;5020812;28;20543;-65
2022/09/21 14:56:50;;;;;;;3.40;0.80;;;;;;;;;;4967526;28;20915;-67
2022/09/21 14:59:18;;;;;;;4.47;1.80;;;;;;;;;;4999772;28;20192;-67
2022/09/21 15:02:02;;;;;;;2.63;1.60;;;;;;;;;;5022980;28;20719;-69
2022/09/21 15:04:44;;;;;;;3.77;1.43;;;;;;;;;;5019008;28;20196;-66
2022/09/21 15:10:57;;;;;;;6.43;2.00;;;;;;;;;;4925763;29;20670;-68
2022/09/21 15:13:40;;;;;;;2.53;0.90;;;;;;;;;;4928211;29;20210;-68
2022/09/21 15:16:07;;;;;;;5.63;2.27;;;;;;;;;;5008220;28;20701;-67
2022/09/21 15:18:38;;;;;;;3.93;1.10;;;;;;;;;;5019928;28;20274;-68